Airfield :
LOGIN :

Register | Disclaimer

   EN    FR    IT 

 










Legend :    VFR   Marginal VFR   IFR   Intensive IFR   Very Intensive IFR
Visi :
Ceiling :
>= 8 km
>= 3000ft
5 to 8 km
1000 to 3000 ft
1500m to 5 km
500 to 1000 ft
800 to 1500m
200 to 500 ft
< 800m
< 200 ft
Symbols :   Thunderstorms  Fog  Heavy snow  Heavy precipitations  Wind > 20 kt
SIGMETs :     Misc.  Thunderstorms  Icing  Turbulence  Mountain Waves  Volcanic Ashes






- Airport Elevation : 538 ft
- IATA code : TNF


LFPN - Toussus Le Noble

CURRENT METAR :
  • 171130Z AUTO 24018KT 9999 BKN029 BKN036 BKN045 11/05 Q1017 TEMPO 23020G35KT 3000 SHRA BKN020 BKN030CB

EXPIRED METARs :
  • 171100Z AUTO 23017KT 9999 BKN028 BKN036 11/05 Q1017 TEMPO 23020G35KT 3000 SHRA BKN020 BKN030CB
  • 171030Z AUTO 23018KT 9999 SCT021 11/06 Q1017 TEMPO 23020G35KT 3000 SHRA BKN020 BKN030CB
  • 171000Z AUTO 23014KT 200V260 9999 BKN018 BKN026 09/06 Q1017 NOSIG
  • 170930Z AUTO 22013KT 9999 BKN014 BKN024 10/07 Q1017 BECMG SCT025
  • 170900Z AUTO 21010KT 9999 BKN014 BKN024 08/06 Q1016 BECMG SCT025

TAF TAF LFPN
Valid from the 17 at 12:00 until the 17 at 21:00 UTC


171100Z 1712/1721 20015G25KT 9999 BKN025
TEMPO 1712/1719 23020G35KT -SHRA BKN030TCU
PROB40
TEMPO 1714/1718 3000 SHRA BKN020 BKN030CB
ATIS : +33 1 39 56 54 70



MET'MAP, your aeronautical weather chart ! - Copyright ORBIFLY December 2007 - Disclaimer

ORBIFLY MET'MAP TEAM :

Programming & Development : Alexandra Zaïnal
Concept & original design : Baudouin d'Aumeries
Assistance for programming : Marc-Olivier Méhu
Technical & hardware support : Manuel Goepfert

Contact : metmap@orbifly.com




SOURCES & CREDITS :

   NOAA